createdAt,value
2023-03-24T00:02:25.029Z,38.20
2023-03-24T00:04:54.369Z,36.25
2023-03-24T00:07:25.292Z,34.87
2023-03-24T00:09:55.227Z,37.15
2023-03-24T00:12:24.143Z,39.20
2023-03-24T00:14:54.761Z,40.58
2023-03-24T00:17:25.648Z,43.40
2023-03-24T00:19:56.246Z,51.03
2023-03-24T00:22:24.320Z,40.65
2023-03-24T00:24:52.398Z,42.67
2023-03-24T00:27:21.477Z,44.45
2023-03-24T00:29:50.617Z,40.03
2023-03-24T00:32:18.702Z,53.70
2023-03-24T00:34:46.933Z,39.70
2023-03-24T00:37:15.129Z,45.00
2023-03-24T00:39:44.596Z,52.88
2023-03-24T00:42:30.900Z,47.95
2023-03-24T00:44:59.907Z,46.30
2023-03-24T00:47:27.998Z,44.00
2023-03-24T00:49:58.958Z,46.63
2023-03-24T00:52:47.769Z,49.83
2023-03-24T00:56:03.132Z,43.25
2023-03-24T00:58:34.769Z,45.60
2023-03-24T01:01:16.281Z,49.20
2023-03-24T01:03:53.544Z,42.72
2023-03-24T01:06:42.681Z,41.88
2023-03-24T01:09:14.142Z,46.13
2023-03-24T01:11:42.762Z,48.17
2023-03-24T01:14:26.178Z,42.30
2023-03-24T01:17:56.227Z,39.78
2023-03-24T01:20:37.920Z,50.70
2023-03-24T01:23:22.650Z,37.25
2023-03-24T01:25:52.530Z,42.50
2023-03-24T01:28:57.827Z,43.50
2023-03-24T01:31:38.726Z,39.50
2023-03-24T01:34:09.727Z,38.97
2023-03-24T01:36:38.304Z,44.05
2023-03-24T01:39:06.964Z,40.53
2023-03-24T01:42:08.040Z,38.05
2023-03-24T01:48:39.139Z,39.40
2023-03-24T01:51:25.651Z,39.60
2023-03-24T01:54:04.953Z,41.03
2023-03-24T01:56:41.029Z,41.35
2023-03-24T01:59:20.353Z,55.78
2023-03-24T02:01:49.050Z,62.88
2023-03-24T02:04:17.314Z,38.60
2023-03-24T02:06:46.699Z,44.08
2023-03-24T02:09:15.802Z,39.90
2023-03-24T02:15:11.497Z,32.75
2023-03-24T02:17:57.554Z,36.60
2023-03-24T02:21:05.847Z,31.60
2023-03-24T02:24:24.559Z,33.17
2023-03-24T02:27:04.586Z,34.53
2023-03-24T02:33:16.909Z,42.72
2023-03-24T02:35:56.954Z,40.65
2023-03-24T02:41:35.078Z,41.22
2023-03-24T02:44:39.650Z,35.55
2023-03-24T02:51:27.881Z,32.50
2023-03-24T02:55:03.302Z,36.55
2023-03-24T02:58:07.918Z,34.25
2023-03-24T03:01:38.474Z,32.97
2023-03-24T03:04:12.244Z,36.38
2023-03-24T03:06:44.975Z,32.40
2023-03-24T03:09:25.352Z,39.40
2023-03-24T03:12:23.188Z,36.97
2023-03-24T03:15:32.524Z,28.98
2023-03-24T03:18:33.522Z,30.20
2023-03-24T03:21:08.098Z,32.50
2023-03-24T03:23:40.312Z,29.52
2023-03-24T03:26:26.330Z,30.08
2023-03-24T03:29:00.615Z,30.58
2023-03-24T03:31:39.353Z,31.48
2023-03-24T03:34:33.683Z,30.75
2023-03-24T03:37:11.860Z,28.65
2023-03-24T03:40:12.020Z,30.92
2023-03-24T03:42:49.519Z,29.25
2023-03-24T03:45:21.407Z,28.17
2023-03-24T03:48:09.778Z,28.45
2023-03-24T03:50:39.683Z,32.22
2023-03-24T03:55:38.463Z,29.73
2023-03-24T03:58:07.093Z,29.15
2023-03-24T04:00:37.481Z,26.35
2023-03-24T04:03:29.213Z,28.15
2023-03-24T04:06:30.388Z,29.60
2023-03-24T04:09:25.673Z,33.30
2023-03-24T04:12:03.359Z,29.92
2023-03-24T04:14:51.047Z,26.58
2023-03-24T04:17:26.725Z,30.73
2023-03-24T04:23:01.153Z,28.25
2023-03-24T04:25:29.529Z,26.20
2023-03-24T04:28:22.265Z,34.85
2023-03-24T04:31:10.049Z,30.10
2023-03-24T04:36:54.675Z,27.05
2023-03-24T04:39:28.799Z,30.33
2023-03-24T04:42:11.056Z,24.80
2023-03-24T04:44:43.216Z,29.48
2023-03-24T04:47:23.359Z,28.77
2023-03-24T04:49:51.622Z,27.45
2023-03-24T04:52:20.015Z,28.02
2023-03-24T04:54:51.836Z,27.23
2023-03-24T05:00:18.032Z,26.52
2023-03-24T05:03:20.656Z,24.83
2023-03-24T05:05:57.608Z,28.80
2023-03-24T05:08:29.277Z,27.67
2023-03-24T05:11:23.423Z,25.55
2023-03-24T05:13:55.550Z,27.77
2023-03-24T05:16:24.013Z,25.23
2023-03-24T05:18:58.346Z,29.05
2023-03-24T05:21:27.399Z,25.58
2023-03-24T05:23:55.753Z,28.45
2023-03-24T05:26:24.131Z,25.63
2023-03-24T05:28:52.797Z,25.27
2023-03-24T05:31:24.697Z,27.70
2023-03-24T05:33:53.140Z,27.65
2023-03-24T05:36:21.202Z,25.02
2023-03-24T05:38:49.663Z,24.38
2023-03-24T05:41:18.766Z,28.92
2023-03-24T05:43:51.361Z,26.30
2023-03-24T05:46:21.022Z,23.60
2023-03-24T05:51:25.667Z,27.02
2023-03-24T05:53:58.357Z,26.20
2023-03-24T05:56:28.471Z,23.85
2023-03-24T05:58:56.633Z,26.60
2023-03-24T06:01:25.699Z,29.42
2023-03-24T06:03:54.174Z,27.15
2023-03-24T06:06:22.728Z,23.80
2023-03-24T06:09:04.965Z,23.48
2023-03-24T06:11:33.421Z,23.10
2023-03-24T06:14:01.584Z,22.15
2023-03-24T06:19:25.015Z,27.77
2023-03-24T06:21:56.195Z,24.83
2023-03-24T06:24:24.368Z,21.73
2023-03-24T06:26:52.436Z,27.65
2023-03-24T06:29:36.577Z,23.63
2023-03-24T06:35:11.919Z,25.77
2023-03-24T06:37:40.516Z,22.17
2023-03-24T06:40:15.407Z,23.17
2023-03-24T06:42:43.714Z,20.50
2023-03-24T06:45:13.632Z,21.83
2023-03-24T06:47:42.603Z,22.33
2023-03-24T06:50:11.308Z,23.45
2023-03-24T06:52:42.800Z,20.75
2023-03-24T06:55:25.485Z,22.45
2023-03-24T06:57:57.976Z,22.55
2023-03-24T07:00:30.593Z,21.48
2023-03-24T07:02:59.687Z,21.25
2023-03-24T07:05:27.947Z,21.58
2023-03-24T07:10:28.366Z,22.92
2023-03-24T07:13:03.556Z,21.17
2023-03-24T07:15:32.270Z,22.33
2023-03-24T07:18:01.079Z,25.63
2023-03-24T07:20:32.349Z,23.00
2023-03-24T07:23:01.238Z,16.83
2023-03-24T07:25:29.635Z,18.45
2023-03-24T07:28:03.370Z,18.97
2023-03-24T07:30:39.881Z,19.52
2023-03-24T07:33:32.695Z,17.70
2023-03-24T07:36:43.313Z,16.40
2023-03-24T07:39:17.280Z,16.27
2023-03-24T07:41:46.803Z,18.85
2023-03-24T07:44:17.801Z,18.58
2023-03-24T07:46:46.600Z,20.42
2023-03-24T07:49:19.515Z,17.70
2023-03-24T07:51:48.265Z,19.60
2023-03-24T07:54:20.282Z,18.52
2023-03-24T07:56:51.482Z,19.70
2023-03-24T07:59:20.427Z,18.95
2023-03-24T08:01:54.818Z,19.27
2023-03-24T08:04:27.693Z,16.35
2023-03-24T08:06:56.897Z,18.08
2023-03-24T08:09:28.289Z,16.13
2023-03-24T08:11:57.865Z,15.50
2023-03-24T08:14:27.101Z,17.50
2023-03-24T08:19:58.276Z,20.77
2023-03-24T08:22:38.646Z,20.77
2023-03-24T08:25:11.082Z,20.15
2023-03-24T08:27:58.688Z,20.15
2023-03-24T08:30:32.478Z,21.17
2023-03-24T08:39:14.855Z,22.50
2023-03-24T08:41:54.497Z,20.75
2023-03-24T08:46:57.181Z,19.92
2023-03-24T08:49:26.310Z,20.00
2023-03-24T08:52:03.387Z,19.55
2023-03-24T08:54:35.514Z,23.02
2023-03-24T08:57:59.018Z,24.33
2023-03-24T09:00:36.989Z,20.80
2023-03-24T09:03:07.773Z,24.92
2023-03-24T09:05:44.569Z,21.13
2023-03-24T09:08:16.327Z,22.30
2023-03-24T09:10:56.254Z,21.35
2023-03-24T09:13:25.292Z,21.25
2023-03-24T09:15:58.609Z,18.33
2023-03-24T09:18:29.219Z,17.92
2023-03-24T09:20:57.551Z,19.67
2023-03-24T09:23:26.130Z,20.98
2023-03-24T09:25:54.898Z,20.10
2023-03-24T09:28:23.799Z,21.00
2023-03-24T09:31:18.194Z,25.30
2023-03-24T09:33:52.908Z,25.33
2023-03-24T09:36:27.208Z,22.25
2023-03-24T09:38:55.224Z,27.75
2023-03-24T09:44:06.226Z,20.95
2023-03-24T09:46:58.270Z,23.40
2023-03-24T09:49:33.731Z,20.58
2023-03-24T09:52:07.667Z,23.23
2023-03-24T09:54:51.029Z,19.38
2023-03-24T09:57:47.569Z,20.67
2023-03-24T10:00:24.539Z,19.77
2023-03-24T10:02:56.098Z,19.52
2023-03-24T10:06:09.340Z,20.02
2023-03-24T10:08:42.331Z,25.55
2023-03-24T10:11:38.750Z,22.33
2023-03-24T10:14:22.907Z,24.38
2023-03-24T10:17:15.393Z,26.75
2023-03-24T10:20:07.983Z,21.80
2023-03-24T10:22:53.650Z,20.00
2023-03-24T10:28:40.841Z,23.42
2023-03-24T10:31:15.779Z,22.02
2023-03-24T10:33:46.045Z,20.52
2023-03-24T10:36:18.860Z,24.88
2023-03-24T10:38:47.787Z,24.50
2023-03-24T10:41:29.071Z,24.10
2023-03-24T10:43:59.591Z,20.75
2023-03-24T10:46:36.764Z,24.38
2023-03-24T10:49:10.458Z,21.73
2023-03-24T10:51:40.229Z,20.02
2023-03-24T10:54:23.957Z,21.70
2023-03-24T10:57:19.410Z,24.15
2023-03-24T10:59:55.718Z,22.15
2023-03-24T11:02:31.870Z,24.60
2023-03-24T11:05:23.992Z,23.17
2023-03-24T11:07:54.044Z,22.13
2023-03-24T11:10:29.278Z,22.02
2023-03-24T11:12:58.884Z,21.92
2023-03-24T11:15:29.643Z,22.92
2023-03-24T11:18:05.076Z,23.58
2023-03-24T11:20:36.867Z,25.20
2023-03-24T11:23:17.048Z,27.83
2023-03-24T11:25:51.831Z,25.92
2023-03-24T11:28:27.092Z,24.33
2023-03-24T11:30:55.964Z,26.73
2023-03-24T11:33:36.383Z,30.37
2023-03-24T11:36:36.822Z,26.80
2023-03-24T11:39:22.541Z,32.30
2023-03-24T11:42:05.966Z,32.35
2023-03-24T11:44:48.720Z,29.40
2023-03-24T11:47:25.849Z,37.00
2023-03-24T11:50:14.007Z,36.42
2023-03-24T11:52:57.293Z,38.00
2023-03-24T11:56:19.193Z,35.65
2023-03-24T11:59:05.064Z,36.08
2023-03-24T12:01:47.764Z,33.22
2023-03-24T12:04:28.845Z,35.92
2023-03-24T12:07:20.871Z,33.47
2023-03-24T12:09:59.111Z,33.45
2023-03-24T12:13:01.453Z,37.88
2023-03-24T12:15:42.549Z,37.30
2023-03-24T12:18:35.796Z,35.92
2023-03-24T12:21:19.115Z,30.77
2023-03-24T12:24:00.147Z,30.20
2023-03-24T12:26:31.928Z,31.40
2023-03-24T12:29:35.912Z,36.95
2023-03-24T12:32:42.736Z,37.28
2023-03-24T12:35:18.193Z,34.80
2023-03-24T12:38:08.731Z,30.85
2023-03-24T12:40:55.300Z,33.33
2023-03-24T12:43:44.944Z,40.40
2023-03-24T12:46:40.630Z,36.65
2023-03-24T12:49:32.990Z,31.73
2023-03-24T12:52:19.382Z,34.30
2023-03-24T12:55:07.568Z,34.33
2023-03-24T12:58:10.599Z,31.52
2023-03-24T13:00:58.083Z,35.22
2023-03-24T13:03:41.603Z,28.58
2023-03-24T13:06:23.102Z,35.60
2023-03-24T13:09:15.114Z,36.13
2023-03-24T13:11:56.841Z,35.10
2023-03-24T13:14:31.920Z,34.25
2023-03-24T13:17:15.167Z,38.78
2023-03-24T13:19:44.788Z,37.30
2023-03-24T13:22:21.154Z,35.83
2023-03-24T13:24:49.788Z,36.15
2023-03-24T13:27:36.846Z,35.95
2023-03-24T13:30:17.762Z,32.95
2023-03-24T13:33:01.746Z,34.50
2023-03-24T13:35:43.061Z,31.00
2023-03-24T13:38:43.880Z,31.05
2023-03-24T13:41:30.951Z,33.63
2023-03-24T13:44:03.821Z,31.05
2023-03-24T13:46:32.993Z,35.65
2023-03-24T13:49:02.171Z,27.73
2023-03-24T13:51:41.633Z,29.27
2023-03-24T13:54:26.856Z,29.73
2023-03-24T13:56:54.956Z,29.40
2023-03-24T13:59:26.183Z,32.30
2023-03-24T14:02:23.625Z,30.70
2023-03-24T14:05:10.807Z,35.08
2023-03-24T14:07:42.040Z,33.70
2023-03-24T14:10:37.610Z,32.45
2023-03-24T14:13:12.937Z,30.27
2023-03-24T14:15:54.867Z,32.25
2023-03-24T14:18:27.190Z,33.00
2023-03-24T14:20:58.446Z,40.42
2023-03-24T14:23:58.437Z,35.55
2023-03-24T14:26:26.957Z,30.08
2023-03-24T14:28:57.557Z,34.15
2023-03-24T14:31:33.510Z,33.53
2023-03-24T14:34:05.992Z,34.17
2023-03-24T14:36:40.943Z,34.83
2023-03-24T14:39:18.009Z,33.35
2023-03-24T14:41:52.119Z,31.25
2023-03-24T14:44:49.670Z,32.55
2023-03-24T14:47:23.821Z,30.95
2023-03-24T14:49:59.614Z,34.60
2023-03-24T14:52:41.338Z,38.40
2023-03-24T14:55:16.774Z,31.98
2023-03-24T14:57:48.642Z,35.08
2023-03-24T15:00:23.158Z,34.92
2023-03-24T15:03:01.045Z,36.72
2023-03-24T15:05:32.493Z,36.28
2023-03-24T15:08:07.835Z,36.90
2023-03-24T15:10:44.950Z,32.67
2023-03-24T15:13:37.572Z,44.05
2023-03-24T15:16:31.526Z,37.92
2023-03-24T15:19:12.256Z,37.35
2023-03-24T15:21:47.100Z,38.53
2023-03-24T15:24:38.832Z,39.63
2023-03-24T15:27:12.072Z,39.05
2023-03-24T15:29:42.203Z,42.90
2023-03-24T15:32:33.155Z,39.28
2023-03-24T15:35:06.019Z,36.75
2023-03-24T15:37:36.747Z,37.95
2023-03-24T15:40:15.692Z,42.40
2023-03-24T15:42:46.660Z,37.20
2023-03-24T15:45:44.625Z,38.22
2023-03-24T15:48:17.004Z,39.83
2023-03-24T15:51:06.911Z,47.90
2023-03-24T15:53:40.599Z,37.40
2023-03-24T15:56:27.091Z,39.58
2023-03-24T15:59:14.086Z,40.17
2023-03-24T16:01:45.169Z,33.47
2023-03-24T16:04:18.570Z,35.80
2023-03-24T16:06:53.645Z,41.28
2023-03-24T16:09:27.527Z,36.45
2023-03-24T16:11:56.297Z,41.85
2023-03-24T16:14:25.619Z,36.92
2023-03-24T16:17:00.010Z,42.75
2023-03-24T16:19:28.847Z,34.58
2023-03-24T16:21:57.139Z,37.75
2023-03-24T16:24:26.180Z,34.55
2023-03-24T16:26:55.087Z,39.90
2023-03-24T16:29:27.458Z,42.90
2023-03-24T16:31:57.555Z,36.60
2023-03-24T16:34:25.792Z,35.63
2023-03-24T16:36:55.140Z,37.42
2023-03-24T16:39:28.921Z,37.33
2023-03-24T16:41:57.457Z,34.28
2023-03-24T16:44:26.100Z,36.90
2023-03-24T16:46:56.207Z,36.65
2023-03-24T16:49:25.168Z,37.65
2023-03-24T16:51:54.068Z,43.57
2023-03-24T16:54:22.326Z,34.95
2023-03-24T16:56:51.374Z,38.85
2023-03-24T16:59:20.000Z,42.75
2023-03-24T17:01:48.341Z,38.55
2023-03-24T17:04:19.574Z,35.30
2023-03-24T17:06:55.576Z,35.72
2023-03-24T17:09:24.159Z,37.42
2023-03-24T17:11:54.597Z,37.97
2023-03-24T17:14:23.788Z,37.30
2023-03-24T17:16:53.456Z,39.13
2023-03-24T17:19:23.729Z,40.28
2023-03-24T17:22:11.889Z,42.05
2023-03-24T17:24:42.487Z,41.95
2023-03-24T17:27:19.027Z,38.35
2023-03-24T17:29:47.589Z,37.95
2023-03-24T17:32:16.179Z,42.97
2023-03-24T17:34:48.593Z,39.30
2023-03-24T17:37:17.600Z,43.33
2023-03-24T17:39:46.422Z,42.50
2023-03-24T17:42:14.711Z,40.28
2023-03-24T17:44:42.876Z,40.95
2023-03-24T17:47:11.106Z,40.00
2023-03-24T17:49:39.272Z,38.80
2023-03-24T17:52:07.507Z,45.53
2023-03-24T17:54:36.363Z,45.70
2023-03-24T17:57:04.481Z,39.10
2023-03-24T17:59:33.909Z,41.10
2023-03-24T18:02:01.960Z,42.97
2023-03-24T18:04:30.310Z,43.42
2023-03-24T18:07:00.457Z,39.88
2023-03-24T18:09:28.846Z,42.97
2023-03-24T18:11:58.888Z,46.83
2023-03-24T18:14:28.166Z,45.63
2023-03-24T18:16:56.280Z,42.75
2023-03-24T18:19:24.682Z,45.20
2023-03-24T18:21:53.556Z,43.53
2023-03-24T18:24:21.605Z,48.35
2023-03-24T18:26:50.434Z,48.88
2023-03-24T18:29:22.993Z,44.77
2023-03-24T18:31:52.449Z,42.42
2023-03-24T18:34:23.294Z,40.28
2023-03-24T18:36:51.696Z,44.25
2023-03-24T18:39:19.792Z,44.58
2023-03-24T18:41:48.340Z,48.45
2023-03-24T18:44:17.770Z,43.20
2023-03-24T18:46:46.769Z,49.78
2023-03-24T18:49:15.557Z,46.20
2023-03-24T18:51:45.405Z,46.72
2023-03-24T18:56:41.993Z,44.22
2023-03-24T18:59:11.873Z,42.50
2023-03-24T19:01:41.122Z,48.33
2023-03-24T19:04:09.644Z,44.47
2023-03-24T19:06:42.755Z,45.40
2023-03-24T19:09:13.776Z,45.35
2023-03-24T19:11:43.617Z,48.00
2023-03-24T19:16:39.483Z,48.75
2023-03-24T19:19:08.997Z,45.97
2023-03-24T19:21:38.139Z,41.65
2023-03-24T19:24:06.645Z,44.33
2023-03-24T19:26:34.632Z,47.65
2023-03-24T19:29:02.764Z,51.10
2023-03-24T19:31:30.940Z,49.30
2023-03-24T19:33:59.885Z,50.90
2023-03-24T19:36:28.320Z,50.13
2023-03-24T19:38:57.823Z,53.20
2023-03-24T19:41:27.474Z,47.42
2023-03-24T19:43:56.463Z,49.50
2023-03-24T19:46:24.769Z,49.17
2023-03-24T19:48:52.944Z,43.58
2023-03-24T19:51:21.807Z,43.42
2023-03-24T19:53:49.928Z,51.45
2023-03-24T19:56:20.718Z,48.97
2023-03-24T19:58:49.737Z,45.67
2023-03-24T20:01:18.274Z,46.08
2023-03-24T20:03:46.644Z,44.65
2023-03-24T20:06:15.864Z,57.60
2023-03-24T20:08:45.538Z,48.75
2023-03-24T20:11:13.671Z,53.75
2023-03-24T20:13:41.935Z,50.00
2023-03-24T20:16:10.940Z,48.15
2023-03-24T20:18:40.185Z,51.78
2023-03-24T20:21:09.470Z,47.90
2023-03-24T20:23:38.583Z,46.40
2023-03-24T20:26:06.967Z,45.83
2023-03-24T20:28:35.845Z,44.67
2023-03-24T20:31:04.637Z,47.55
2023-03-24T20:33:32.755Z,43.40
2023-03-24T20:36:01.277Z,49.05
2023-03-24T20:38:29.666Z,43.22
2023-03-24T20:41:08.136Z,44.58
2023-03-24T20:43:37.974Z,44.97
2023-03-24T20:46:08.589Z,48.33
2023-03-24T20:48:37.591Z,51.00
2023-03-24T20:51:06.046Z,53.65
2023-03-24T20:53:36.686Z,43.72
2023-03-24T20:56:07.834Z,46.85
2023-03-24T20:58:39.132Z,43.58
2023-03-24T21:01:09.595Z,43.53
2023-03-24T21:03:37.801Z,46.38
2023-03-24T21:06:07.113Z,52.20
2023-03-24T21:08:35.120Z,51.30
2023-03-24T21:11:03.153Z,50.25
2023-03-24T21:13:37.368Z,49.70
2023-03-24T21:16:11.283Z,46.40
2023-03-24T21:18:43.741Z,47.42
2023-03-24T21:21:12.960Z,43.63
2023-03-24T21:23:42.482Z,49.78
2023-03-24T21:26:15.458Z,48.33
2023-03-24T21:28:43.796Z,46.55
2023-03-24T21:31:26.755Z,47.72
2023-03-24T21:33:56.593Z,45.40
2023-03-24T21:36:31.656Z,45.40
2023-03-24T21:38:59.847Z,49.58
2023-03-24T21:41:29.066Z,45.65
2023-03-24T21:44:00.917Z,44.17
2023-03-24T21:46:32.297Z,44.33
2023-03-24T21:49:01.213Z,45.38
2023-03-24T21:51:35.038Z,43.17
2023-03-24T21:54:06.934Z,49.13
2023-03-24T21:56:38.253Z,47.95
2023-03-24T21:59:07.397Z,45.45
2023-03-24T22:01:36.499Z,45.35
2023-03-24T22:04:06.793Z,47.63
2023-03-24T22:06:39.085Z,51.35
2023-03-24T22:09:08.420Z,47.90
2023-03-24T22:11:38.299Z,47.78
2023-03-24T22:14:07.178Z,50.65
2023-03-24T22:16:35.551Z,54.20
2023-03-24T22:19:03.726Z,49.22
2023-03-24T22:21:32.625Z,50.17
2023-03-24T22:24:00.933Z,52.13
2023-03-24T22:26:29.149Z,49.95
2023-03-24T22:28:57.457Z,48.10
2023-03-24T22:31:25.669Z,45.75
2023-03-24T22:33:54.872Z,45.75
2023-03-24T22:36:22.922Z,50.30
2023-03-24T22:38:51.300Z,47.97
2023-03-24T22:41:19.326Z,49.92
2023-03-24T22:43:47.361Z,50.90
2023-03-24T22:46:15.833Z,52.00
2023-03-24T22:48:44.033Z,54.85
2023-03-24T22:51:17.252Z,50.13
2023-03-24T22:53:48.601Z,52.88
2023-03-24T22:56:16.829Z,60.35
2023-03-24T22:58:45.001Z,58.55
2023-03-24T23:01:13.241Z,50.10
2023-03-24T23:03:42.098Z,56.55
2023-03-24T23:06:12.202Z,51.15
2023-03-24T23:11:08.530Z,65.85
2023-03-24T23:13:36.495Z,59.85
2023-03-24T23:16:06.042Z,61.35
2023-03-24T23:18:34.847Z,58.53
2023-03-24T23:21:09.492Z,56.30
2023-03-24T23:23:39.345Z,60.38
2023-03-24T23:26:26.123Z,52.50
2023-03-24T23:28:57.184Z,59.58
2023-03-24T23:31:27.743Z,65.95
2023-03-24T23:33:57.863Z,54.33
2023-03-24T23:36:28.733Z,59.60
2023-03-24T23:38:57.649Z,66.55
2023-03-24T23:41:25.817Z,63.90
2023-03-24T23:43:55.335Z,74.28
2023-03-24T23:46:25.368Z,65.80
2023-03-24T23:51:22.349Z,63.03
2023-03-24T23:53:51.857Z,55.08
2023-03-24T23:56:22.536Z,58.20
2023-03-24T23:58:50.488Z,61.50
